sensor_id;sensor_type;location;lat;lon;timestamp;P1;durP1;ratioP1;P2;durP2;ratioP2
54929;SDS011;40833;53.238;6.576;2023-07-31T00:01:45;4.63;;;2.80;;
54929;SDS011;40833;53.238;6.576;2023-07-31T00:04:11;6.67;;;3.00;;
54929;SDS011;40833;53.238;6.576;2023-07-31T00:06:36;6.27;;;3.70;;
54929;SDS011;40833;53.238;6.576;2023-07-31T00:09:02;6.63;;;3.50;;
54929;SDS011;40833;53.238;6.576;2023-07-31T00:11:28;8.00;;;4.00;;
54929;SDS011;40833;53.238;6.576;2023-07-31T00:13:53;4.33;;;3.33;;
54929;SDS011;40833;53.238;6.576;2023-07-31T00:16:19;6.77;;;4.40;;
54929;SDS011;40833;53.238;6.576;2023-07-31T00:18:45;6.63;;;4.43;;
54929;SDS011;40833;53.238;6.576;2023-07-31T00:21:10;28.67;;;5.90;;
54929;SDS011;40833;53.238;6.576;2023-07-31T00:23:36;8.30;;;4.57;;
54929;SDS011;40833;53.238;6.576;2023-07-31T00:26:02;6.90;;;3.87;;
54929;SDS011;40833;53.238;6.576;2023-07-31T00:28:27;9.83;;;3.77;;
54929;SDS011;40833;53.238;6.576;2023-07-31T00:30:53;12.73;;;4.30;;
54929;SDS011;40833;53.238;6.576;2023-07-31T00:33:19;4.17;;;3.40;;
54929;SDS011;40833;53.238;6.576;2023-07-31T00:35:45;4.53;;;3.00;;
54929;SDS011;40833;53.238;6.576;2023-07-31T00:38:11;3.47;;;3.10;;
54929;SDS011;40833;53.238;6.576;2023-07-31T00:40:36;5.17;;;3.50;;
54929;SDS011;40833;53.238;6.576;2023-07-31T00:43:03;6.13;;;3.00;;
54929;SDS011;40833;53.238;6.576;2023-07-31T00:45:29;5.87;;;2.87;;
54929;SDS011;40833;53.238;6.576;2023-07-31T00:47:55;4.97;;;2.83;;
54929;SDS011;40833;53.238;6.576;2023-07-31T00:50:24;2.70;;;2.50;;
54929;SDS011;40833;53.238;6.576;2023-07-31T00:52:50;7.43;;;3.27;;
54929;SDS011;40833;53.238;6.576;2023-07-31T00:55:16;5.30;;;3.07;;
54929;SDS011;40833;53.238;6.576;2023-07-31T00:57:42;4.47;;;2.97;;
54929;SDS011;40833;53.238;6.576;2023-07-31T01:00:10;2.97;;;2.77;;
54929;SDS011;40833;53.238;6.576;2023-07-31T01:02:36;3.90;;;3.50;;
54929;SDS011;40833;53.238;6.576;2023-07-31T01:05:02;4.27;;;3.13;;
54929;SDS011;40833;53.238;6.576;2023-07-31T01:10:20;3.20;;;2.90;;
54929;SDS011;40833;53.238;6.576;2023-07-31T01:12:48;3.13;;;2.90;;
54929;SDS011;40833;53.238;6.576;2023-07-31T01:15:16;3.53;;;3.20;;
54929;SDS011;40833;53.238;6.576;2023-07-31T01:17:42;3.43;;;3.17;;
54929;SDS011;40833;53.238;6.576;2023-07-31T01:20:13;3.87;;;2.53;;
54929;SDS011;40833;53.238;6.576;2023-07-31T01:28:20;2.13;;;1.93;;
54929;SDS011;40833;53.238;6.576;2023-07-31T01:31:09;1.80;;;1.70;;
54929;SDS011;40833;53.238;6.576;2023-07-31T01:33:38;2.57;;;1.70;;
54929;SDS011;40833;53.238;6.576;2023-07-31T01:36:04;4.23;;;1.90;;
54929;SDS011;40833;53.238;6.576;2023-07-31T01:38:30;2.00;;;1.90;;
54929;SDS011;40833;53.238;6.576;2023-07-31T01:40:56;4.10;;;2.27;;
54929;SDS011;40833;53.238;6.576;2023-07-31T01:43:22;3.73;;;2.73;;
54929;SDS011;40833;53.238;6.576;2023-07-31T01:45:49;4.77;;;2.90;;
54929;SDS011;40833;53.238;6.576;2023-07-31T01:48:15;3.93;;;3.10;;
54929;SDS011;40833;53.238;6.576;2023-07-31T01:50:40;6.03;;;3.50;;
54929;SDS011;40833;53.238;6.576;2023-07-31T01:53:06;3.57;;;3.27;;
54929;SDS011;40833;53.238;6.576;2023-07-31T01:55:32;4.57;;;3.13;;
54929;SDS011;40833;53.238;6.576;2023-07-31T01:57:57;4.67;;;2.57;;
54929;SDS011;40833;53.238;6.576;2023-07-31T02:00:23;3.20;;;3.00;;
54929;SDS011;40833;53.238;6.576;2023-07-31T02:02:48;8.83;;;4.80;;
54929;SDS011;40833;53.238;6.576;2023-07-31T02:05:14;4.20;;;2.83;;
54929;SDS011;40833;53.238;6.576;2023-07-31T02:07:40;4.57;;;2.77;;
54929;SDS011;40833;53.238;6.576;2023-07-31T02:10:05;5.13;;;2.93;;
54929;SDS011;40833;53.238;6.576;2023-07-31T02:12:31;3.73;;;2.57;;
54929;SDS011;40833;53.238;6.576;2023-07-31T02:14:58;3.90;;;2.20;;
54929;SDS011;40833;53.238;6.576;2023-07-31T02:17:24;4.93;;;2.67;;
54929;SDS011;40833;53.238;6.576;2023-07-31T02:19:50;3.33;;;2.47;;
54929;SDS011;40833;53.238;6.576;2023-07-31T02:22:15;5.87;;;2.73;;
54929;SDS011;40833;53.238;6.576;2023-07-31T02:24:41;2.77;;;2.17;;
54929;SDS011;40833;53.238;6.576;2023-07-31T02:27:07;2.10;;;1.90;;
54929;SDS011;40833;53.238;6.576;2023-07-31T02:29:32;1.93;;;1.83;;
54929;SDS011;40833;53.238;6.576;2023-07-31T02:31:58;1.80;;;1.60;;
54929;SDS011;40833;53.238;6.576;2023-07-31T02:34:23;2.00;;;1.90;;
54929;SDS011;40833;53.238;6.576;2023-07-31T02:36:49;2.87;;;2.10;;
54929;SDS011;40833;53.238;6.576;2023-07-31T02:39:15;1.63;;;1.50;;
54929;SDS011;40833;53.238;6.576;2023-07-31T02:41:40;2.50;;;1.60;;
54929;SDS011;40833;53.238;6.576;2023-07-31T02:44:06;2.43;;;1.50;;
54929;SDS011;40833;53.238;6.576;2023-07-31T02:46:32;2.83;;;2.00;;
54929;SDS011;40833;53.238;6.576;2023-07-31T02:48:57;6.70;;;1.80;;
54929;SDS011;40833;53.238;6.576;2023-07-31T02:51:23;4.77;;;1.77;;
54929;SDS011;40833;53.238;6.576;2023-07-31T02:53:48;4.27;;;2.00;;
54929;SDS011;40833;53.238;6.576;2023-07-31T02:56:14;1.90;;;1.27;;
54929;SDS011;40833;53.238;6.576;2023-07-31T02:58:40;2.97;;;1.73;;
54929;SDS011;40833;53.238;6.576;2023-07-31T03:01:06;4.10;;;1.90;;
54929;SDS011;40833;53.238;6.576;2023-07-31T03:03:31;4.87;;;1.10;;
54929;SDS011;40833;53.238;6.576;2023-07-31T03:05:57;4.97;;;1.63;;
54929;SDS011;40833;53.238;6.576;2023-07-31T03:08:23;6.93;;;1.27;;
54929;SDS011;40833;53.238;6.576;2023-07-31T03:10:48;3.33;;;1.33;;
54929;SDS011;40833;53.238;6.576;2023-07-31T03:13:14;5.57;;;1.27;;
54929;SDS011;40833;53.238;6.576;2023-07-31T03:15:41;3.40;;;1.33;;
54929;SDS011;40833;53.238;6.576;2023-07-31T03:18:08;6.60;;;1.40;;
54929;SDS011;40833;53.238;6.576;2023-07-31T03:20:34;2.57;;;1.20;;
54929;SDS011;40833;53.238;6.576;2023-07-31T03:22:59;3.67;;;1.40;;
54929;SDS011;40833;53.238;6.576;2023-07-31T03:25:25;1.33;;;1.23;;
54929;SDS011;40833;53.238;6.576;2023-07-31T03:27:51;3.40;;;1.17;;
54929;SDS011;40833;53.238;6.576;2023-07-31T03:30:16;2.73;;;0.97;;
54929;SDS011;40833;53.238;6.576;2023-07-31T03:32:42;2.80;;;1.10;;
54929;SDS011;40833;53.238;6.576;2023-07-31T03:35:08;4.73;;;1.00;;
54929;SDS011;40833;53.238;6.576;2023-07-31T03:37:33;3.13;;;1.10;;
54929;SDS011;40833;53.238;6.576;2023-07-31T03:39:59;3.70;;;0.83;;
54929;SDS011;40833;53.238;6.576;2023-07-31T03:42:25;1.53;;;0.57;;
54929;SDS011;40833;53.238;6.576;2023-07-31T03:44:50;1.97;;;0.90;;
54929;SDS011;40833;53.238;6.576;2023-07-31T03:47:16;2.30;;;0.60;;
54929;SDS011;40833;53.238;6.576;2023-07-31T03:49:42;3.43;;;0.90;;
54929;SDS011;40833;53.238;6.576;2023-07-31T03:52:07;5.63;;;0.60;;
54929;SDS011;40833;53.238;6.576;2023-07-31T03:54:33;3.27;;;0.50;;
54929;SDS011;40833;53.238;6.576;2023-07-31T03:56:59;1.83;;;0.67;;
54929;SDS011;40833;53.238;6.576;2023-07-31T03:59:24;5.17;;;0.80;;
54929;SDS011;40833;53.238;6.576;2023-07-31T04:01:50;2.60;;;0.33;;
54929;SDS011;40833;53.238;6.576;2023-07-31T04:04:16;1.57;;;0.60;;
54929;SDS011;40833;53.238;6.576;2023-07-31T04:06:41;1.90;;;0.60;;
54929;SDS011;40833;53.238;6.576;2023-07-31T04:09:07;2.60;;;0.70;;
54929;SDS011;40833;53.238;6.576;2023-07-31T04:11:32;4.10;;;0.60;;
54929;SDS011;40833;53.238;6.576;2023-07-31T04:13:58;2.17;;;0.60;;
54929;SDS011;40833;53.238;6.576;2023-07-31T04:16:24;3.93;;;0.87;;
54929;SDS011;40833;53.238;6.576;2023-07-31T04:18:49;1.83;;;0.73;;
54929;SDS011;40833;53.238;6.576;2023-07-31T04:21:15;2.83;;;0.50;;
54929;SDS011;40833;53.238;6.576;2023-07-31T04:23:41;3.73;;;0.90;;
54929;SDS011;40833;53.238;6.576;2023-07-31T04:26:06;2.60;;;0.50;;
54929;SDS011;40833;53.238;6.576;2023-07-31T04:28:32;6.53;;;0.43;;
54929;SDS011;40833;53.238;6.576;2023-07-31T04:30:58;1.33;;;0.43;;
54929;SDS011;40833;53.238;6.576;2023-07-31T04:33:24;1.50;;;0.40;;
54929;SDS011;40833;53.238;6.576;2023-07-31T04:35:50;1.37;;;0.40;;
54929;SDS011;40833;53.238;6.576;2023-07-31T04:38:22;1.90;;;0.70;;
54929;SDS011;40833;53.238;6.576;2023-07-31T04:40:48;2.67;;;0.40;;
54929;SDS011;40833;53.238;6.576;2023-07-31T04:43:13;1.90;;;0.20;;
54929;SDS011;40833;53.238;6.576;2023-07-31T04:45:41;1.63;;;0.30;;
54929;SDS011;40833;53.238;6.576;2023-07-31T04:48:10;1.27;;;0.50;;
54929;SDS011;40833;53.238;6.576;2023-07-31T04:50:36;0.53;;;0.53;;
54929;SDS011;40833;53.238;6.576;2023-07-31T04:53:01;1.80;;;0.23;;
54929;SDS011;40833;53.238;6.576;2023-07-31T04:55:27;2.10;;;0.37;;
54929;SDS011;40833;53.238;6.576;2023-07-31T04:57:53;2.00;;;0.30;;
54929;SDS011;40833;53.238;6.576;2023-07-31T05:00:18;0.23;;;0.20;;
54929;SDS011;40833;53.238;6.576;2023-07-31T05:02:44;1.17;;;0.20;;
54929;SDS011;40833;53.238;6.576;2023-07-31T05:05:10;2.33;;;0.20;;
54929;SDS011;40833;53.238;6.576;2023-07-31T05:07:35;1.37;;;0.30;;
54929;SDS011;40833;53.238;6.576;2023-07-31T05:10:01;0.60;;;0.20;;
54929;SDS011;40833;53.238;6.576;2023-07-31T05:12:27;1.30;;;0.20;;
54929;SDS011;40833;53.238;6.576;2023-07-31T05:14:53;1.57;;;0.30;;
54929;SDS011;40833;53.238;6.576;2023-07-31T05:17:18;1.13;;;0.20;;
54929;SDS011;40833;53.238;6.576;2023-07-31T05:19:44;1.60;;;0.20;;
54929;SDS011;40833;53.238;6.576;2023-07-31T05:22:10;1.27;;;0.20;;
54929;SDS011;40833;53.238;6.576;2023-07-31T05:24:35;1.27;;;0.20;;
54929;SDS011;40833;53.238;6.576;2023-07-31T05:27:01;2.57;;;0.60;;
54929;SDS011;40833;53.238;6.576;2023-07-31T05:29:27;0.53;;;0.20;;
54929;SDS011;40833;53.238;6.576;2023-07-31T05:31:52;2.23;;;0.10;;
54929;SDS011;40833;53.238;6.576;2023-07-31T05:34:18;1.77;;;0.20;;
54929;SDS011;40833;53.238;6.576;2023-07-31T05:36:44;0.87;;;0.10;;
54929;SDS011;40833;53.238;6.576;2023-07-31T05:39:09;0.20;;;0.10;;
54929;SDS011;40833;53.238;6.576;2023-07-31T05:41:35;1.60;;;0.10;;
54929;SDS011;40833;53.238;6.576;2023-07-31T05:44:01;6.00;;;0.10;;
54929;SDS011;40833;53.238;6.576;2023-07-31T05:46:27;0.50;;;0.10;;
54929;SDS011;40833;53.238;6.576;2023-07-31T05:48:52;0.27;;;0.10;;
54929;SDS011;40833;53.238;6.576;2023-07-31T05:51:18;0.20;;;0.10;;
54929;SDS011;40833;53.238;6.576;2023-07-31T05:53:43;2.33;;;0.20;;
54929;SDS011;40833;53.238;6.576;2023-07-31T05:56:09;0.63;;;0.10;;
54929;SDS011;40833;53.238;6.576;2023-07-31T05:58:35;0.60;;;0.30;;
54929;SDS011;40833;53.238;6.576;2023-07-31T06:01:00;0.43;;;0.20;;
54929;SDS011;40833;53.238;6.576;2023-07-31T06:03:26;0.87;;;0.30;;
54929;SDS011;40833;53.238;6.576;2023-07-31T06:05:52;1.50;;;0.23;;
54929;SDS011;40833;53.238;6.576;2023-07-31T06:08:17;0.80;;;0.50;;
54929;SDS011;40833;53.238;6.576;2023-07-31T06:10:43;1.33;;;0.30;;
54929;SDS011;40833;53.238;6.576;2023-07-31T06:13:09;2.63;;;0.47;;
54929;SDS011;40833;53.238;6.576;2023-07-31T06:15:34;2.37;;;0.67;;
54929;SDS011;40833;53.238;6.576;2023-07-31T06:18:00;2.67;;;0.83;;
54929;SDS011;40833;53.238;6.576;2023-07-31T06:20:27;0.93;;;0.77;;
54929;SDS011;40833;53.238;6.576;2023-07-31T06:22:53;3.67;;;0.70;;
54929;SDS011;40833;53.238;6.576;2023-07-31T06:25:19;1.87;;;0.70;;
54929;SDS011;40833;53.238;6.576;2023-07-31T06:27:44;2.83;;;1.10;;
54929;SDS011;40833;53.238;6.576;2023-07-31T06:30:11;3.63;;;1.40;;
54929;SDS011;40833;53.238;6.576;2023-07-31T06:32:36;4.37;;;1.50;;
54929;SDS011;40833;53.238;6.576;2023-07-31T06:35:02;4.60;;;1.70;;
54929;SDS011;40833;53.238;6.576;2023-07-31T06:37:28;10.73;;;2.60;;
54929;SDS011;40833;53.238;6.576;2023-07-31T06:39:54;10.97;;;2.33;;
54929;SDS011;40833;53.238;6.576;2023-07-31T06:42:19;9.67;;;3.37;;
54929;SDS011;40833;53.238;6.576;2023-07-31T06:44:45;15.50;;;4.20;;
54929;SDS011;40833;53.238;6.576;2023-07-31T06:47:10;21.47;;;4.93;;
54929;SDS011;40833;53.238;6.576;2023-07-31T06:49:36;21.40;;;4.63;;
54929;SDS011;40833;53.238;6.576;2023-07-31T06:52:02;22.23;;;4.93;;
54929;SDS011;40833;53.238;6.576;2023-07-31T06:54:28;26.10;;;5.40;;
54929;SDS011;40833;53.238;6.576;2023-07-31T06:56:53;17.33;;;5.63;;
54929;SDS011;40833;53.238;6.576;2023-07-31T06:59:19;24.27;;;6.47;;
54929;SDS011;40833;53.238;6.576;2023-07-31T07:01:45;21.00;;;5.43;;
54929;SDS011;40833;53.238;6.576;2023-07-31T07:04:10;28.67;;;6.47;;
54929;SDS011;40833;53.238;6.576;2023-07-31T07:06:36;26.17;;;6.30;;
54929;SDS011;40833;53.238;6.576;2023-07-31T07:09:02;27.57;;;6.13;;
54929;SDS011;40833;53.238;6.576;2023-07-31T07:11:28;26.77;;;6.57;;
54929;SDS011;40833;53.238;6.576;2023-07-31T07:13:54;23.43;;;5.47;;
54929;SDS011;40833;53.238;6.576;2023-07-31T07:16:20;23.85;;;5.60;;
54929;SDS011;40833;53.238;6.576;2023-07-31T07:18:46;16.80;;;5.20;;
54929;SDS011;40833;53.238;6.576;2023-07-31T07:21:11;24.57;;;5.33;;
54929;SDS011;40833;53.238;6.576;2023-07-31T07:23:41;26.25;;;5.32;;
54929;SDS011;40833;53.238;6.576;2023-07-31T07:26:07;24.70;;;6.40;;
54929;SDS011;40833;53.238;6.576;2023-07-31T07:28:33;21.20;;;5.15;;
54929;SDS011;40833;53.238;6.576;2023-07-31T07:30:58;23.30;;;5.47;;
54929;SDS011;40833;53.238;6.576;2023-07-31T07:33:24;23.33;;;5.20;;
54929;SDS011;40833;53.238;6.576;2023-07-31T07:35:49;16.07;;;3.90;;
54929;SDS011;40833;53.238;6.576;2023-07-31T07:38:15;24.73;;;4.90;;
54929;SDS011;40833;53.238;6.576;2023-07-31T07:40:41;25.42;;;5.40;;
54929;SDS011;40833;53.238;6.576;2023-07-31T07:43:07;15.20;;;4.67;;
54929;SDS011;40833;53.238;6.576;2023-07-31T07:45:32;20.23;;;4.82;;
54929;SDS011;40833;53.238;6.576;2023-07-31T07:47:58;17.58;;;5.03;;
54929;SDS011;40833;53.238;6.576;2023-07-31T07:50:24;19.02;;;5.18;;
54929;SDS011;40833;53.238;6.576;2023-07-31T07:52:50;22.90;;;5.73;;
54929;SDS011;40833;53.238;6.576;2023-07-31T07:55:15;22.92;;;5.70;;
54929;SDS011;40833;53.238;6.576;2023-07-31T07:57:41;16.98;;;4.80;;
54929;SDS011;40833;53.238;6.576;2023-07-31T08:00:09;19.70;;;4.82;;
54929;SDS011;40833;53.238;6.576;2023-07-31T08:02:35;8.27;;;3.97;;
54929;SDS011;40833;53.238;6.576;2023-07-31T08:05:01;7.63;;;2.13;;
54929;SDS011;40833;53.238;6.576;2023-07-31T08:07:27;6.23;;;1.50;;
54929;SDS011;40833;53.238;6.576;2023-07-31T08:09:52;4.00;;;1.00;;
54929;SDS011;40833;53.238;6.576;2023-07-31T08:12:18;2.42;;;0.52;;
54929;SDS011;40833;53.238;6.576;2023-07-31T08:14:44;3.60;;;0.43;;
54929;SDS011;40833;53.238;6.576;2023-07-31T08:17:09;2.80;;;0.70;;
54929;SDS011;40833;53.238;6.576;2023-07-31T08:19:35;0.60;;;0.30;;
54929;SDS011;40833;53.238;6.576;2023-07-31T08:22:01;0.82;;;0.45;;
54929;SDS011;40833;53.238;6.576;2023-07-31T08:24:26;1.23;;;0.50;;
54929;SDS011;40833;53.238;6.576;2023-07-31T08:26:52;2.67;;;0.80;;
54929;SDS011;40833;53.238;6.576;2023-07-31T08:29:18;1.30;;;0.50;;
54929;SDS011;40833;53.238;6.576;2023-07-31T08:31:43;1.10;;;0.40;;
54929;SDS011;40833;53.238;6.576;2023-07-31T08:34:09;2.42;;;0.40;;
54929;SDS011;40833;53.238;6.576;2023-07-31T08:36:35;1.65;;;0.60;;
54929;SDS011;40833;53.238;6.576;2023-07-31T08:39:00;1.25;;;0.40;;
54929;SDS011;40833;53.238;6.576;2023-07-31T08:41:27;0.82;;;0.50;;
54929;SDS011;40833;53.238;6.576;2023-07-31T08:43:52;0.57;;;0.40;;
54929;SDS011;40833;53.238;6.576;2023-07-31T08:46:20;0.47;;;0.20;;
54929;SDS011;40833;53.238;6.576;2023-07-31T08:48:46;1.70;;;0.17;;
54929;SDS011;40833;53.238;6.576;2023-07-31T08:51:14;0.68;;;0.30;;
54929;SDS011;40833;53.238;6.576;2023-07-31T08:53:39;0.93;;;0.40;;
54929;SDS011;40833;53.238;6.576;2023-07-31T08:56:05;0.95;;;0.28;;
54929;SDS011;40833;53.238;6.576;2023-07-31T08:58:32;1.65;;;0.10;;
54929;SDS011;40833;53.238;6.576;2023-07-31T09:01:00;1.60;;;0.20;;
54929;SDS011;40833;53.238;6.576;2023-07-31T09:03:28;1.25;;;0.20;;
54929;SDS011;40833;53.238;6.576;2023-07-31T09:05:58;1.38;;;0.30;;
54929;SDS011;40833;53.238;6.576;2023-07-31T09:08:24;0.43;;;0.20;;
54929;SDS011;40833;53.238;6.576;2023-07-31T09:10:57;0.60;;;0.20;;
54929;SDS011;40833;53.238;6.576;2023-07-31T09:13:29;0.17;;;0.10;;
54929;SDS011;40833;53.238;6.576;2023-07-31T09:15:56;1.23;;;0.10;;
54929;SDS011;40833;53.238;6.576;2023-07-31T09:18:21;1.20;;;0.10;;
54929;SDS011;40833;53.238;6.576;2023-07-31T09:23:46;0.20;;;0.10;;
54929;SDS011;40833;53.238;6.576;2023-07-31T09:26:35;0.98;;;0.10;;
54929;SDS011;40833;53.238;6.576;2023-07-31T09:29:03;0.30;;;0.10;;
54929;SDS011;40833;53.238;6.576;2023-07-31T09:31:39;0.30;;;0.10;;
54929;SDS011;40833;53.238;6.576;2023-07-31T09:34:06;1.35;;;0.20;;
54929;SDS011;40833;53.238;6.576;2023-07-31T09:36:32;0.68;;;0.20;;
54929;SDS011;40833;53.238;6.576;2023-07-31T09:41:30;4.25;;;0.20;;
54929;SDS011;40833;53.238;6.576;2023-07-31T09:43:56;0.10;;;0.03;;
54929;SDS011;40833;53.238;6.576;2023-07-31T09:46:22;0.28;;;0.17;;
54929;SDS011;40833;53.238;6.576;2023-07-31T09:48:51;0.15;;;0.05;;
54929;SDS011;40833;53.238;6.576;2023-07-31T09:51:17;0.40;;;0.10;;
54929;SDS011;40833;53.238;6.576;2023-07-31T09:53:52;0.70;;;0.10;;
54929;SDS011;40833;53.238;6.576;2023-07-31T09:56:17;0.22;;;0.10;;
54929;SDS011;40833;53.238;6.576;2023-07-31T09:58:46;0.85;;;0.00;;
54929;SDS011;40833;53.238;6.576;2023-07-31T10:01:13;0.08;;;0.00;;
54929;SDS011;40833;53.238;6.576;2023-07-31T10:03:39;0.10;;;0.00;;
54929;SDS011;40833;53.238;6.576;2023-07-31T10:06:05;0.10;;;0.00;;
54929;SDS011;40833;53.238;6.576;2023-07-31T10:08:34;0.00;;;0.00;;
54929;SDS011;40833;53.238;6.576;2023-07-31T10:11:01;0.20;;;0.00;;
54929;SDS011;40833;53.238;6.576;2023-07-31T10:13:28;0.47;;;0.00;;
54929;SDS011;40833;53.238;6.576;2023-07-31T10:15:56;1.30;;;0.00;;
54929;SDS011;40833;53.238;6.576;2023-07-31T10:18:25;0.65;;;0.03;;
54929;SDS011;40833;53.238;6.576;2023-07-31T10:20:51;0.00;;;0.00;;
54929;SDS011;40833;53.238;6.576;2023-07-31T10:23:17;0.90;;;0.00;;
54929;SDS011;40833;53.238;6.576;2023-07-31T10:25:43;0.10;;;0.00;;
54929;SDS011;40833;53.238;6.576;2023-07-31T10:28:12;0.00;;;0.00;;
54929;SDS011;40833;53.238;6.576;2023-07-31T10:30:38;0.52;;;0.00;;
54929;SDS011;40833;53.238;6.576;2023-07-31T10:33:05;0.65;;;0.00;;
54929;SDS011;40833;53.238;6.576;2023-07-31T10:35:32;0.20;;;0.00;;
54929;SDS011;40833;53.238;6.576;2023-07-31T10:38:08;0.10;;;0.00;;
54929;SDS011;40833;53.238;6.576;2023-07-31T10:40:36;0.10;;;0.00;;
54929;SDS011;40833;53.238;6.576;2023-07-31T10:43:02;0.25;;;0.00;;
54929;SDS011;40833;53.238;6.576;2023-07-31T10:45:32;4.22;;;0.03;;
54929;SDS011;40833;53.238;6.576;2023-07-31T10:48:22;2.00;;;0.00;;
54929;SDS011;40833;53.238;6.576;2023-07-31T10:50:49;0.20;;;0.00;;
54929;SDS011;40833;53.238;6.576;2023-07-31T10:53:23;1.65;;;0.00;;
54929;SDS011;40833;53.238;6.576;2023-07-31T10:55:58;0.40;;;0.00;;
54929;SDS011;40833;53.238;6.576;2023-07-31T10:58:24;0.17;;;0.00;;
54929;SDS011;40833;53.238;6.576;2023-07-31T11:00:51;0.73;;;0.00;;
54929;SDS011;40833;53.238;6.576;2023-07-31T11:03:24;0.70;;;0.10;;
54929;SDS011;40833;53.238;6.576;2023-07-31T11:08:21;0.28;;;0.05;;
54929;SDS011;40833;53.238;6.576;2023-07-31T11:11:10;1.00;;;0.10;;
54929;SDS011;40833;53.238;6.576;2023-07-31T11:13:45;0.20;;;0.10;;
54929;SDS011;40833;53.238;6.576;2023-07-31T11:16:17;0.25;;;0.20;;
54929;SDS011;40833;53.238;6.576;2023-07-31T11:18:44;0.73;;;0.20;;
54929;SDS011;40833;53.238;6.576;2023-07-31T11:21:15;0.40;;;0.10;;
54929;SDS011;40833;53.238;6.576;2023-07-31T11:23:46;3.35;;;0.05;;
54929;SDS011;40833;53.238;6.576;2023-07-31T11:26:22;0.20;;;0.00;;
54929;SDS011;40833;53.238;6.576;2023-07-31T11:28:49;1.65;;;0.00;;
54929;SDS011;40833;53.238;6.576;2023-07-31T11:31:15;0.50;;;0.00;;
54929;SDS011;40833;53.238;6.576;2023-07-31T11:33:41;1.27;;;0.10;;
54929;SDS011;40833;53.238;6.576;2023-07-31T11:36:14;0.50;;;0.00;;
54929;SDS011;40833;53.238;6.576;2023-07-31T11:38:41;1.48;;;0.10;;
54929;SDS011;40833;53.238;6.576;2023-07-31T11:41:06;1.52;;;0.10;;
54929;SDS011;40833;53.238;6.576;2023-07-31T11:43:32;1.55;;;0.10;;
54929;SDS011;40833;53.238;6.576;2023-07-31T11:45:58;0.70;;;0.05;;
54929;SDS011;40833;53.238;6.576;2023-07-31T11:48:28;1.25;;;0.10;;
54929;SDS011;40833;53.238;6.576;2023-07-31T11:51:00;4.47;;;0.20;;
54929;SDS011;40833;53.238;6.576;2023-07-31T11:53:31;0.85;;;0.10;;
54929;SDS011;40833;53.238;6.576;2023-07-31T11:56:26;1.40;;;0.10;;
54929;SDS011;40833;53.238;6.576;2023-07-31T11:58:54;1.38;;;0.10;;
54929;SDS011;40833;53.238;6.576;2023-07-31T12:01:22;0.25;;;0.10;;
54929;SDS011;40833;53.238;6.576;2023-07-31T12:03:49;0.30;;;0.10;;
54929;SDS011;40833;53.238;6.576;2023-07-31T12:06:15;2.15;;;0.10;;
54929;SDS011;40833;53.238;6.576;2023-07-31T12:08:41;1.10;;;0.10;;
54929;SDS011;40833;53.238;6.576;2023-07-31T12:11:08;1.85;;;0.20;;
54929;SDS011;40833;53.238;6.576;2023-07-31T12:13:34;1.10;;;0.10;;
54929;SDS011;40833;53.238;6.576;2023-07-31T12:16:01;1.80;;;0.20;;
54929;SDS011;40833;53.238;6.576;2023-07-31T12:18:29;1.13;;;0.20;;
54929;SDS011;40833;53.238;6.576;2023-07-31T12:20:59;0.50;;;0.20;;
54929;SDS011;40833;53.238;6.576;2023-07-31T12:23:26;1.17;;;0.30;;
54929;SDS011;40833;53.238;6.576;2023-07-31T12:28:58;1.40;;;0.17;;
54929;SDS011;40833;53.238;6.576;2023-07-31T12:31:24;2.05;;;0.30;;
54929;SDS011;40833;53.238;6.576;2023-07-31T12:33:53;1.00;;;0.10;;
54929;SDS011;40833;53.238;6.576;2023-07-31T12:36:21;0.60;;;0.10;;
54929;SDS011;40833;53.238;6.576;2023-07-31T12:38:48;1.33;;;0.30;;
54929;SDS011;40833;53.238;6.576;2023-07-31T12:41:15;0.63;;;0.20;;
54929;SDS011;40833;53.238;6.576;2023-07-31T12:43:41;2.50;;;0.30;;
54929;SDS011;40833;53.238;6.576;2023-07-31T12:46:09;2.17;;;0.50;;
54929;SDS011;40833;53.238;6.576;2023-07-31T12:48:35;0.77;;;0.20;;
54929;SDS011;40833;53.238;6.576;2023-07-31T12:51:02;2.45;;;0.30;;
54929;SDS011;40833;53.238;6.576;2023-07-31T12:53:28;1.35;;;0.20;;
54929;SDS011;40833;53.238;6.576;2023-07-31T12:55:55;1.92;;;0.28;;
54929;SDS011;40833;53.238;6.576;2023-07-31T12:58:21;2.70;;;0.32;;
54929;SDS011;40833;53.238;6.576;2023-07-31T13:00:46;2.75;;;0.30;;
54929;SDS011;40833;53.238;6.576;2023-07-31T13:03:12;2.55;;;0.30;;
54929;SDS011;40833;53.238;6.576;2023-07-31T13:05:38;3.50;;;0.30;;
54929;SDS011;40833;53.238;6.576;2023-07-31T13:08:03;2.28;;;0.60;;
54929;SDS011;40833;53.238;6.576;2023-07-31T13:10:29;2.30;;;0.30;;
54929;SDS011;40833;53.238;6.576;2023-07-31T13:12:55;6.82;;;0.32;;
54929;SDS011;40833;53.238;6.576;2023-07-31T13:15:21;4.43;;;0.50;;
54929;SDS011;40833;53.238;6.576;2023-07-31T13:17:47;2.22;;;0.55;;
54929;SDS011;40833;53.238;6.576;2023-07-31T13:20:13;4.15;;;0.80;;
54929;SDS011;40833;53.238;6.576;2023-07-31T13:22:38;2.72;;;0.57;;
54929;SDS011;40833;53.238;6.576;2023-07-31T13:25:04;6.03;;;0.63;;
54929;SDS011;40833;53.238;6.576;2023-07-31T13:27:31;3.13;;;0.57;;
54929;SDS011;40833;53.238;6.576;2023-07-31T13:29:57;4.93;;;0.80;;
54929;SDS011;40833;53.238;6.576;2023-07-31T13:32:22;5.00;;;1.10;;
54929;SDS011;40833;53.238;6.576;2023-07-31T13:34:48;5.13;;;0.95;;
54929;SDS011;40833;53.238;6.576;2023-07-31T13:37:14;4.72;;;0.93;;
54929;SDS011;40833;53.238;6.576;2023-07-31T13:39:40;4.22;;;0.73;;
54929;SDS011;40833;53.238;6.576;2023-07-31T13:42:06;6.47;;;0.77;;
54929;SDS011;40833;53.238;6.576;2023-07-31T13:44:36;5.72;;;1.10;;
54929;SDS011;40833;53.238;6.576;2023-07-31T13:47:03;8.73;;;1.40;;
54929;SDS011;40833;53.238;6.576;2023-07-31T13:49:29;7.60;;;1.13;;
54929;SDS011;40833;53.238;6.576;2023-07-31T13:51:55;3.65;;;0.93;;
54929;SDS011;40833;53.238;6.576;2023-07-31T13:54:24;5.22;;;0.88;;
54929;SDS011;40833;53.238;6.576;2023-07-31T13:56:51;4.00;;;1.05;;
54929;SDS011;40833;53.238;6.576;2023-07-31T13:59:17;4.57;;;1.13;;
54929;SDS011;40833;53.238;6.576;2023-07-31T14:01:43;4.97;;;1.27;;
54929;SDS011;40833;53.238;6.576;2023-07-31T14:04:09;7.85;;;1.30;;
54929;SDS011;40833;53.238;6.576;2023-07-31T14:06:35;6.28;;;1.05;;
54929;SDS011;40833;53.238;6.576;2023-07-31T14:09:01;3.45;;;0.98;;
54929;SDS011;40833;53.238;6.576;2023-07-31T14:11:27;7.38;;;1.55;;
54929;SDS011;40833;53.238;6.576;2023-07-31T14:13:55;10.60;;;1.67;;
54929;SDS011;40833;53.238;6.576;2023-07-31T14:16:21;12.75;;;1.92;;
54929;SDS011;40833;53.238;6.576;2023-07-31T14:18:47;10.65;;;1.75;;
54929;SDS011;40833;53.238;6.576;2023-07-31T14:21:13;5.15;;;1.70;;
54929;SDS011;40833;53.238;6.576;2023-07-31T14:23:39;6.15;;;1.38;;
54929;SDS011;40833;53.238;6.576;2023-07-31T14:26:05;7.05;;;1.48;;
54929;SDS011;40833;53.238;6.576;2023-07-31T14:28:31;6.50;;;1.55;;
54929;SDS011;40833;53.238;6.576;2023-07-31T14:30:56;4.80;;;1.65;;
54929;SDS011;40833;53.238;6.576;2023-07-31T14:33:22;4.78;;;1.80;;
54929;SDS011;40833;53.238;6.576;2023-07-31T14:35:48;4.75;;;1.80;;
54929;SDS011;40833;53.238;6.576;2023-07-31T14:38:14;7.88;;;2.25;;
54929;SDS011;40833;53.238;6.576;2023-07-31T14:40:40;7.75;;;1.98;;
54929;SDS011;40833;53.238;6.576;2023-07-31T14:43:06;6.35;;;1.90;;
54929;SDS011;40833;53.238;6.576;2023-07-31T14:45:32;5.82;;;2.03;;
54929;SDS011;40833;53.238;6.576;2023-07-31T14:47:57;8.13;;;2.00;;
54929;SDS011;40833;53.238;6.576;2023-07-31T14:50:24;4.78;;;2.00;;
54929;SDS011;40833;53.238;6.576;2023-07-31T14:52:50;8.57;;;2.50;;
54929;SDS011;40833;53.238;6.576;2023-07-31T14:55:17;6.40;;;1.85;;
54929;SDS011;40833;53.238;6.576;2023-07-31T14:57:43;8.55;;;2.35;;
54929;SDS011;40833;53.238;6.576;2023-07-31T15:00:09;8.20;;;2.00;;
54929;SDS011;40833;53.238;6.576;2023-07-31T15:02:35;9.23;;;2.20;;